createdAt,value
2024-01-20T00:04:09.061Z,99574.35
2024-01-20T00:09:14.940Z,99573.90
2024-01-20T00:14:17.065Z,99579.29
2024-01-20T00:19:19.965Z,99585.80
2024-01-20T00:24:22.134Z,99587.96
2024-01-20T00:29:24.242Z,99592.77
2024-01-20T00:34:26.413Z,99590.93
2024-01-20T00:39:28.346Z,99593.98
2024-01-20T00:44:30.287Z,99599.91
2024-01-20T00:49:32.286Z,99600.77
2024-01-20T00:54:34.262Z,99603.40
2024-01-20T00:59:36.252Z,99604.28
2024-01-20T01:04:38.166Z,99608.05
2024-01-20T01:09:40.124Z,99613.02
2024-01-20T01:14:42.035Z,99623.80
2024-01-20T01:19:44.753Z,99618.36
2024-01-20T01:24:46.806Z,99619.01
2024-01-20T01:29:48.757Z,99619.95
2024-01-20T01:34:50.617Z,99625.67
2024-01-20T01:39:52.568Z,99624.02
2024-01-20T01:44:55.840Z,99621.45
2024-01-20T01:49:58.035Z,99621.45
2024-01-20T01:55:00.540Z,99622.11
2024-01-20T02:00:05.726Z,99620.42
2024-01-20T02:05:07.822Z,99631.58
2024-01-20T02:10:12.089Z,99636.20
2024-01-20T02:15:15.854Z,99641.29
2024-01-20T02:20:18.026Z,99643.43
2024-01-20T02:25:20.267Z,99645.05
2024-01-20T02:30:22.528Z,99641.80
2024-01-20T02:35:24.451Z,99640.44
2024-01-20T02:40:27.760Z,99636.20
2024-01-20T02:45:29.770Z,99640.16
2024-01-20T02:50:32.465Z,99643.14
2024-01-20T02:55:34.453Z,99654.23
2024-01-20T03:00:36.544Z,99656.63
2024-01-20T03:05:38.574Z,99660.63
2024-01-20T03:10:40.526Z,99658.90
2024-01-20T03:15:42.616Z,99656.98
2024-01-20T03:20:45.177Z,99656.05
2024-01-20T03:25:47.106Z,99648.60
2024-01-20T03:30:49.198Z,99652.23
2024-01-20T03:35:51.193Z,99648.80
2024-01-20T03:40:53.296Z,99641.61
2024-01-20T03:45:56.821Z,99644.61
2024-01-20T03:50:58.908Z,99648.54
2024-01-20T03:56:02.666Z,99657.41
2024-01-20T04:01:04.951Z,99659.58
2024-01-20T04:06:07.135Z,99672.86
2024-01-20T04:11:09.125Z,99682.84
2024-01-20T04:16:11.198Z,99680.54
2024-01-20T04:21:13.103Z,99674.67
2024-01-20T04:26:14.974Z,99681.04
2024-01-20T04:31:16.942Z,99688.43
2024-01-20T04:36:18.790Z,99693.91
2024-01-20T04:41:21.004Z,99700.37
2024-01-20T04:46:23.135Z,99702.15
2024-01-20T04:51:25.557Z,99703.11
2024-01-20T04:56:27.727Z,99711.70
2024-01-20T05:01:29.876Z,99718.29
2024-01-20T05:06:32.537Z,99721.92
2024-01-20T05:11:34.697Z,99725.38
2024-01-20T05:16:38.018Z,99726.19
2024-01-20T05:21:45.517Z,99731.80
2024-01-20T05:26:57.464Z,99733.95
2024-01-20T05:32:00.254Z,99744.21
2024-01-20T05:37:16.560Z,99749.67
2024-01-20T05:42:20.047Z,99754.02
2024-01-20T05:47:22.976Z,99754.27
2024-01-20T05:52:33.476Z,99755.00
2024-01-20T06:04:25.122Z,99768.41
2024-01-20T06:09:27.880Z,99771.97
2024-01-20T06:14:34.773Z,99772.77
2024-01-20T06:19:40.931Z,99780.78
2024-01-20T06:24:49.483Z,99791.03
2024-01-20T06:29:51.919Z,99802.27
2024-01-20T06:34:54.193Z,99798.11
2024-01-20T06:47:40.738Z,99793.71
2024-01-20T06:52:43.796Z,99804.56
2024-01-20T06:57:46.401Z,99813.27
2024-01-20T07:02:49.064Z,99818.21
2024-01-20T07:07:51.645Z,99815.06
2024-01-20T07:12:55.513Z,99818.08
2024-01-20T07:18:02.414Z,99829.06
2024-01-20T07:23:05.282Z,99828.31
2024-01-20T07:28:08.253Z,99822.77
2024-01-20T07:33:10.963Z,99832.38
2024-01-20T07:38:16.648Z,99839.26
2024-01-20T07:43:28.168Z,99843.02
2024-01-20T07:48:30.904Z,99838.54
2024-01-20T07:53:33.462Z,99839.34
2024-01-20T07:58:39.528Z,99836.35
2024-01-20T08:03:41.913Z,99846.64
2024-01-20T08:08:56.240Z,99849.84
2024-01-20T08:14:01.664Z,99861.18
2024-01-20T08:19:04.481Z,99861.02
2024-01-20T08:24:10.963Z,99856.76
2024-01-20T08:29:13.964Z,99856.61
2024-01-20T08:34:16.444Z,99864.63
2024-01-20T08:39:20.150Z,99876.35
2024-01-20T08:44:22.229Z,99876.55
2024-01-20T08:49:24.478Z,99876.05
2024-01-20T08:54:26.424Z,99889.39
2024-01-20T08:59:28.556Z,99898.65
2024-01-20T09:04:31.088Z,99898.16
2024-01-20T09:09:35.212Z,99909.36
2024-01-20T09:14:37.882Z,99919.95
2024-01-20T09:19:40.277Z,99927.94
2024-01-20T09:24:42.401Z,99927.13
2024-01-20T09:29:44.256Z,99927.48
2024-01-20T09:34:46.694Z,99916.69
2024-01-20T09:39:48.483Z,99913.83
2024-01-20T09:44:52.219Z,99907.40
2024-01-20T09:49:54.884Z,99906.14
2024-01-20T09:55:20.479Z,99904.29
2024-01-20T10:00:24.984Z,99902.83
2024-01-20T10:05:29.932Z,99898.42
2024-01-20T10:10:32.995Z,99892.44
2024-01-20T10:15:35.500Z,99887.23
2024-01-20T10:20:38.409Z,99889.16
2024-01-20T10:25:40.286Z,99891.51
2024-01-20T10:30:42.821Z,99894.77
2024-01-20T10:35:45.114Z,99887.59
2024-01-20T10:40:51.608Z,99883.93
2024-01-20T10:46:06.046Z,99886.11
2024-01-20T10:51:12.714Z,99884.45
2024-01-20T10:56:15.671Z,99884.09
2024-01-20T11:01:18.955Z,99883.96
2024-01-20T11:06:26.421Z,99884.48
2024-01-20T11:11:29.889Z,99878.00
2024-01-20T11:16:33.544Z,99879.80
2024-01-20T11:21:35.666Z,99879.98
2024-01-20T11:26:39.275Z,99869.70
2024-01-20T11:31:48.084Z,99870.02
2024-01-20T11:36:51.212Z,99866.86
2024-01-20T11:42:00.879Z,99864.10
2024-01-20T11:47:03.430Z,99862.20
2024-01-20T11:52:06.026Z,99861.04
2024-01-20T11:57:08.437Z,99848.56
2024-01-20T12:02:10.492Z,99847.96
2024-01-20T12:07:12.917Z,99853.63
2024-01-20T12:12:16.024Z,99857.55
2024-01-20T12:17:23.314Z,99872.48
2024-01-20T12:22:25.324Z,99871.54
2024-01-20T12:27:28.485Z,99870.27
2024-01-20T12:32:30.753Z,99870.86
2024-01-20T12:37:32.605Z,99859.57
2024-01-20T12:42:37.655Z,99853.71
2024-01-20T12:47:40.867Z,99853.51
2024-01-20T12:52:43.780Z,99851.80
2024-01-20T12:57:45.963Z,99856.98
2024-01-20T13:02:48.044Z,99853.54
2024-01-20T13:07:50.445Z,99852.87
2024-01-20T13:12:52.286Z,99854.70
2024-01-20T13:17:57.183Z,99862.03
2024-01-20T13:22:59.505Z,99863.52
2024-01-20T13:28:01.775Z,99869.42
2024-01-20T13:33:04.797Z,99868.70
2024-01-20T13:38:07.124Z,99862.23
2024-01-20T13:43:09.517Z,99864.23
2024-01-20T13:48:12.223Z,99874.40
2024-01-20T13:53:14.823Z,99869.95
2024-01-20T13:58:19.954Z,99873.48
2024-01-20T14:03:22.465Z,99873.23
2024-01-20T14:08:25.169Z,99877.23
2024-01-20T14:13:27.340Z,99881.41
2024-01-20T14:18:29.947Z,99880.67
2024-01-20T14:23:32.036Z,99887.85
2024-01-20T14:28:34.454Z,99897.11
2024-01-20T14:33:45.683Z,99894.83
2024-01-20T14:38:48.251Z,99894.97
2024-01-20T14:43:50.172Z,99894.13
2024-01-20T14:48:52.359Z,99901.24
2024-01-20T14:53:55.262Z,99904.95
2024-01-20T14:58:57.618Z,99913.80
2024-01-20T15:04:00.812Z,99919.85
2024-01-20T15:09:04.206Z,99928.30
2024-01-20T15:14:09.298Z,99932.61
2024-01-20T15:19:11.362Z,99938.45
2024-01-20T15:24:13.436Z,99947.95
2024-01-20T15:29:16.363Z,99953.21
2024-01-20T15:34:19.108Z,99959.90
2024-01-20T15:39:22.844Z,99961.23
2024-01-20T15:44:25.237Z,99964.54
2024-01-20T15:49:27.894Z,99968.64
2024-01-20T15:54:30.251Z,99971.78
2024-01-20T15:59:32.539Z,99974.29
2024-01-20T16:04:36.101Z,99978.36
2024-01-20T16:09:38.186Z,99976.55
2024-01-20T16:14:40.536Z,99980.59
2024-01-20T16:19:42.869Z,99984.96
2024-01-20T16:24:46.300Z,99986.88
2024-01-20T16:29:48.297Z,100000.16
2024-01-20T16:34:50.653Z,100001.73
2024-01-20T16:39:53.009Z,100008.98
2024-01-20T16:44:55.869Z,100022.88
2024-01-20T16:49:58.418Z,100033.52
2024-01-20T16:55:14.128Z,100036.85
2024-01-20T17:00:22.899Z,100039.30
2024-01-20T17:05:25.878Z,100041.59
2024-01-20T17:10:31.546Z,100047.17
2024-01-20T17:15:34.214Z,100053.67
2024-01-20T17:20:36.753Z,100064.76
2024-01-20T17:25:43.870Z,100069.96
2024-01-20T17:30:46.126Z,100067.30
2024-01-20T17:35:54.259Z,100069.73
2024-01-20T17:40:57.454Z,100085.70
2024-01-20T17:45:59.430Z,100092.73
2024-01-20T17:51:01.603Z,100100.55
2024-01-20T17:56:04.829Z,100114.31
2024-01-20T18:01:07.955Z,100115.99
2024-01-20T18:06:18.849Z,100120.00
2024-01-20T18:11:21.775Z,100129.42
2024-01-20T18:16:24.206Z,100134.27
2024-01-20T18:21:26.386Z,100137.79
2024-01-20T18:26:33.153Z,100136.15
2024-01-20T18:31:35.335Z,100138.73
2024-01-20T18:36:40.515Z,100138.20
2024-01-20T18:41:42.767Z,100145.38
2024-01-20T18:46:44.847Z,100151.67
2024-01-20T18:51:47.028Z,100157.86
2024-01-20T18:56:52.923Z,100158.85
2024-01-20T19:01:55.959Z,100162.77
2024-01-20T19:06:58.024Z,100157.70
2024-01-20T19:12:00.311Z,100155.42
2024-01-20T19:17:02.309Z,100163.70
2024-01-20T19:22:04.404Z,100174.36
2024-01-20T19:27:06.615Z,100177.58
2024-01-20T19:32:09.636Z,100180.75
2024-01-20T19:37:12.735Z,100180.89
2024-01-20T19:42:14.944Z,100186.17
2024-01-20T19:47:17.010Z,100196.36
2024-01-20T19:52:19.171Z,100202.85
2024-01-20T19:57:21.224Z,100206.68
2024-01-20T20:02:26.647Z,100211.87
2024-01-20T20:07:30.354Z,100217.41
2024-01-20T20:12:32.826Z,100228.55
2024-01-20T20:17:36.043Z,100228.00
2024-01-20T20:22:38.597Z,100230.15
2024-01-20T20:27:40.617Z,100230.27
2024-01-20T20:32:42.869Z,100234.81
2024-01-20T20:37:45.067Z,100240.89
2024-01-20T20:42:47.364Z,100236.97
2024-01-20T20:47:49.505Z,100234.42
2024-01-20T20:52:51.580Z,100233.25
2024-01-20T20:57:53.637Z,100238.00
2024-01-20T21:02:55.874Z,100240.19
2024-01-20T21:07:58.218Z,100233.02
2024-01-20T21:13:00.979Z,100233.55
2024-01-20T21:18:03.855Z,100235.82
2024-01-20T21:23:06.059Z,100238.95
2024-01-20T21:28:08.443Z,100237.95
2024-01-20T21:33:10.510Z,100244.12
2024-01-20T21:38:14.093Z,100243.17
2024-01-20T21:43:15.940Z,100245.96
2024-01-20T21:48:17.966Z,100248.67
2024-01-20T21:53:22.254Z,100245.16
2024-01-20T21:58:24.853Z,100250.27
2024-01-20T22:03:27.181Z,100247.85
2024-01-20T22:08:32.166Z,100256.05
2024-01-20T22:13:34.109Z,100267.45
2024-01-20T22:18:36.215Z,100273.71
2024-01-20T22:23:38.725Z,100278.48
2024-01-20T22:28:40.775Z,100274.94
2024-01-20T22:33:43.049Z,100279.06
2024-01-20T22:38:47.098Z,100290.84
2024-01-20T22:43:53.410Z,100290.98
2024-01-20T22:48:55.373Z,100287.70
2024-01-20T22:53:57.525Z,100285.81
2024-01-20T22:58:59.656Z,100286.75
2024-01-20T23:04:03.265Z,100287.91
2024-01-20T23:09:07.697Z,100292.90
2024-01-20T23:14:09.840Z,100294.47
2024-01-20T23:19:12.528Z,100295.81
2024-01-20T23:24:14.736Z,100297.21
2024-01-20T23:29:18.176Z,100301.63
2024-01-20T23:34:20.130Z,100302.04
2024-01-20T23:39:22.190Z,100304.04
2024-01-20T23:44:24.424Z,100304.60
2024-01-20T23:49:26.434Z,100309.21
2024-01-20T23:54:28.619Z,100310.98
2024-01-20T23:59:30.588Z,100313.79
